Alida, MN

7:23 PM CDT on October 01, 2014 (GMT -0500)
Bemidji-Beltrami County | Change Station
CLOSE
Current Station
Airport
Location: Bemidji,
Elevation: 1378 ft
Nearby Weather Stations

Elev 1378 ft 47.51 °N, 94.93 °W | Updated 9 minutes ago

Overcast
Overcast
56 °F
Feels Like 56 °F
N
9
Wind Variable Wind from South

Today
High -- | Low -- °F
--% Chance of Precip.
Yesterday
High -- | Low -- °F
Precip. -- in
7:19 AM 7:00 PM
First Quarter, 52% visible
Pressure 29.72 in
Visibility 7.0 miles
Clouds Overcast 800 ft
Dew Point 53 °F
Humidity 91%
Rainfall 0.00 in
Snow Depth Not available.
UV 0 out of 12
Pollen 2.60 out of 12
Air Quality Not available.
Flu Activity Not available.
METAR KBJI 020014Z AUTO 19008KT 7SM OVC008 13/12 A2972 RMK AO2 T01330118

More Conditions Fewer Conditions

Pressure 29.72 in
Visibility 7.0 miles
Clouds Overcast 800 ft
Dew Point 53 °F
Humidity 91%
Rainfall 0.00 in
Snow Depth Not available.
UV 0 out of 12
Pollen 2.60 out of 12
Air Quality Not available.
Flu Activity Not available.
METAR KBJI 020014Z AUTO 19008KT 7SM OVC008 13/12 A2972 RMK AO2 T01330118

More Conditions Fewer Conditions

10-Day Weather Forecast

Almanac

Astronomy

Oct. 01, 2014 Rise Set
Actual Time 7:19 AM CDT 7:00 PM CDT
Civil Twilight 6:49 AM CDT 7:30 PM CDT
Nautical Twilight 6:13 AM CDT 8:06 PM CDT
Astronomical Twilight 5:37 AM CDT 8:42 PM CDT
Moon 2:39 PM CDT (10/1) No Moon Set
Length of Visible Light 12h 41m
Length of Day
11h 40m
Tomorrow will be 3m 23s shorter.
First Quarter, 52% of the Moon is Illuminated
Today
First Quarter
Oct 8
Full
Oct 15
Last Quarter
Oct 23
New
Oct 30
First Quarter

Today's Extremes

State Highs State Lows

Community

WunderPhotos

Upload Photos

1,758,097 photos uploaded!

WunderBlogs® & News

Nearby

Snow Depth

Station Depth Elevation
No new snow has been reported.

Earthquake Activity

City Distance Mag. Time & Date
No recent earthquake activity has been reported nearby.
Minimum magnitude displayed is 2.5.

Coastal Water Temperatures

Place Temperature
No Stations Reporting

Nearby Weather Stations